Cleveland, Ohio
Traffic Map
Current Weather Conditions
Cleveland, Ohio
Overcast
Overcast
31°
Feels Like: 32°
Wind Chill: 31° Ceiling: 25000
Heat Index: 32° Visibility: 10mi
Dew Point: 18° Wind: 14mph
Humidity: 45% Direction: 190° (S)
Pressure: 29.91in Gusts: 20mph
Raw Report DataKBKL 302153Z 19012G17KT 10SM FEW060 FEW095 OVC250 31/18 A2991 RMK AO2 SLP124 T03110178
Traffic Incident Summary
Active as of:
Severity:
Category:
InformationThere was an issue retrieving the traffic information for this location. Please try a different location or try again shortly.
Advertisements
Track Severe Weather on mobile